createdAt,value
2023-02-22T00:00:43.689Z,61.28
2023-02-22T00:02:49.796Z,65.05
2023-02-22T00:04:54.731Z,72.93
2023-02-22T00:07:02.271Z,64.70
2023-02-22T00:09:09.455Z,65.22
2023-02-22T00:11:15.307Z,71.35
2023-02-22T00:13:22.939Z,64.72
2023-02-22T00:15:30.775Z,65.15
2023-02-22T00:17:38.585Z,63.33
2023-02-22T00:19:47.749Z,68.68
2023-02-22T00:21:55.696Z,60.17
2023-02-22T00:24:00.882Z,69.45
2023-02-22T00:26:09.997Z,67.00
2023-02-22T00:28:15.917Z,72.78
2023-02-22T00:30:23.392Z,68.10
2023-02-22T00:32:29.001Z,63.72
2023-02-22T00:34:38.310Z,76.28
2023-02-22T00:36:49.872Z,63.17
2023-02-22T00:38:57.557Z,63.92
2023-02-22T00:41:03.999Z,68.88
2023-02-22T00:43:10.137Z,67.47
2023-02-22T00:45:16.153Z,65.57
2023-02-22T00:47:21.372Z,61.25
2023-02-22T00:49:26.531Z,68.63
2023-02-22T00:51:34.433Z,59.75
2023-02-22T00:53:39.494Z,65.90
2023-02-22T00:55:44.905Z,66.47
2023-02-22T00:57:50.118Z,64.53
2023-02-22T00:59:55.262Z,61.33
2023-02-22T01:02:00.759Z,59.22
2023-02-22T01:04:09.272Z,75.97
2023-02-22T01:06:16.814Z,68.65
2023-02-22T01:08:25.447Z,69.70
2023-02-22T01:10:33.257Z,62.97
2023-02-22T01:12:39.231Z,65.13
2023-02-22T01:14:45.029Z,61.20
2023-02-22T01:16:50.910Z,62.55
2023-02-22T01:18:56.964Z,68.40
2023-02-22T01:21:04.817Z,70.65
2023-02-22T01:23:12.124Z,62.45
2023-02-22T01:25:23.501Z,63.00
2023-02-22T01:27:29.387Z,75.25
2023-02-22T01:29:34.594Z,60.85
2023-02-22T01:31:41.404Z,57.33
2023-02-22T01:33:48.609Z,63.38
2023-02-22T01:35:54.516Z,68.68
2023-02-22T01:38:00.608Z,63.95
2023-02-22T01:40:07.440Z,65.03
2023-02-22T01:42:15.003Z,70.53
2023-02-22T01:44:29.842Z,64.72
2023-02-22T01:46:34.594Z,73.30
2023-02-22T01:48:44.760Z,66.93
2023-02-22T01:50:56.956Z,68.15
2023-02-22T01:53:03.103Z,74.85
2023-02-22T01:55:08.854Z,74.80
2023-02-22T01:57:23.248Z,61.70
2023-02-22T01:59:28.969Z,74.80
2023-02-22T02:01:38.321Z,65.00
2023-02-22T02:03:46.907Z,59.38
2023-02-22T02:05:55.675Z,65.95
2023-02-22T02:08:05.007Z,66.15
2023-02-22T02:10:16.177Z,69.60
2023-02-22T02:12:26.395Z,71.18
2023-02-22T02:14:33.710Z,71.72
2023-02-22T02:16:45.523Z,81.10
2023-02-22T02:18:53.618Z,69.85
2023-02-22T02:21:37.087Z,62.05
2023-02-22T02:24:05.726Z,64.57
2023-02-22T02:26:40.618Z,62.60
2023-02-22T02:29:12.273Z,65.35
2023-02-22T02:31:46.602Z,66.60
2023-02-22T02:34:06.244Z,69.20
2023-02-22T02:36:18.992Z,67.57
2023-02-22T02:38:37.134Z,67.00
2023-02-22T02:40:49.661Z,63.42
2023-02-22T02:43:00.624Z,80.65
2023-02-22T02:45:12.516Z,66.18
2023-02-22T02:47:22.580Z,64.55
2023-02-22T02:49:34.952Z,67.30
2023-02-22T02:51:43.101Z,69.25
2023-02-22T02:53:52.195Z,73.25
2023-02-22T02:55:57.682Z,71.32
2023-02-22T02:58:04.914Z,68.22
2023-02-22T03:00:22.845Z,67.72
2023-02-22T03:02:41.714Z,71.05
2023-02-22T03:05:09.589Z,76.55
2023-02-22T03:07:26.996Z,81.50
2023-02-22T03:09:43.322Z,68.75
2023-02-22T03:12:01.687Z,74.80
2023-02-22T03:14:19.508Z,73.57
2023-02-22T03:16:34.509Z,71.43
2023-02-22T03:18:50.003Z,81.53
2023-02-22T03:21:11.227Z,74.97
2023-02-22T03:23:25.488Z,72.43
2023-02-22T03:25:37.010Z,72.78
2023-02-22T03:27:46.684Z,83.43
2023-02-22T03:29:55.646Z,66.20
2023-02-22T03:32:02.997Z,79.00
2023-02-22T03:34:13.797Z,63.17
2023-02-22T03:36:28.046Z,67.60
2023-02-22T03:38:40.039Z,72.85
2023-02-22T03:40:49.092Z,72.25
2023-02-22T03:42:59.328Z,67.85
2023-02-22T03:45:10.109Z,70.45
2023-02-22T03:47:21.544Z,62.85
2023-02-22T03:49:33.567Z,65.55
2023-02-22T03:51:43.547Z,66.60
2023-02-22T03:53:52.548Z,67.10
2023-02-22T03:56:00.549Z,68.55
2023-02-22T03:58:09.379Z,68.75
2023-02-22T04:00:20.322Z,58.95
2023-02-22T04:02:27.724Z,58.42
2023-02-22T04:04:33.666Z,65.82
2023-02-22T04:06:41.850Z,68.63
2023-02-22T04:08:47.169Z,66.03
2023-02-22T04:10:52.110Z,77.53
2023-02-22T04:12:56.975Z,73.95
2023-02-22T04:15:05.377Z,78.93
2023-02-22T04:17:13.192Z,76.85
2023-02-22T04:19:17.975Z,72.22
2023-02-22T04:21:22.955Z,70.18
2023-02-22T04:23:42.836Z,63.45
2023-02-22T04:25:48.003Z,80.15
2023-02-22T04:27:53.098Z,71.45
2023-02-22T04:29:58.120Z,79.82
2023-02-22T04:32:04.214Z,73.30
2023-02-22T04:34:09.255Z,66.82
2023-02-22T04:36:16.283Z,71.82
2023-02-22T04:38:21.866Z,69.28
2023-02-22T04:40:31.105Z,71.60
2023-02-22T04:42:36.068Z,81.72
2023-02-22T04:44:42.351Z,83.93
2023-02-22T04:46:50.090Z,77.43
2023-02-22T04:48:56.005Z,69.32
2023-02-22T04:51:00.895Z,69.85
2023-02-22T04:53:05.872Z,72.75
2023-02-22T04:55:13.201Z,85.63
2023-02-22T04:57:20.809Z,79.57
2023-02-22T04:59:26.177Z,93.25
2023-02-22T05:01:35.335Z,90.25
2023-02-22T05:03:42.821Z,90.72
2023-02-22T05:05:48.055Z,79.78
2023-02-22T05:07:53.623Z,83.13
2023-02-22T05:09:59.392Z,76.53
2023-02-22T05:12:04.974Z,68.75
2023-02-22T05:14:12.795Z,77.32
2023-02-22T05:16:18.010Z,72.18
2023-02-22T05:18:22.936Z,65.25
2023-02-22T05:20:36.293Z,63.83
2023-02-22T05:22:44.222Z,72.55
2023-02-22T05:24:52.479Z,69.55
2023-02-22T05:27:00.806Z,66.53
2023-02-22T05:29:07.785Z,82.15
2023-02-22T05:31:17.957Z,73.75
2023-02-22T05:33:23.596Z,62.30
2023-02-22T05:35:32.447Z,70.22
2023-02-22T05:37:38.038Z,71.32
2023-02-22T05:39:42.980Z,72.43
2023-02-22T05:41:48.089Z,74.65
2023-02-22T05:43:53.280Z,64.70
2023-02-22T05:46:00.454Z,58.90
2023-02-22T05:48:08.656Z,64.15
2023-02-22T05:50:14.165Z,67.00
2023-02-22T05:52:21.982Z,59.90
2023-02-22T05:54:26.884Z,64.10
2023-02-22T05:56:33.236Z,60.28
2023-02-22T05:58:38.632Z,70.05
2023-02-22T06:00:43.474Z,65.13
2023-02-22T06:02:49.090Z,69.72
2023-02-22T06:04:56.585Z,63.30
2023-02-22T06:07:03.846Z,57.90
2023-02-22T06:09:08.974Z,57.85
2023-02-22T06:11:13.933Z,60.83
2023-02-22T06:13:22.027Z,61.33
2023-02-22T06:15:29.724Z,59.78
2023-02-22T06:17:34.939Z,63.45
2023-02-22T06:19:40.539Z,58.55
2023-02-22T06:21:54.725Z,59.30
2023-02-22T06:23:59.769Z,52.83
2023-02-22T06:26:04.735Z,48.90
2023-02-22T06:28:09.739Z,54.65
2023-02-22T06:30:19.005Z,59.10
2023-02-22T06:32:24.156Z,54.63
2023-02-22T06:34:28.911Z,87.07
2023-02-22T06:36:39.621Z,60.40
2023-02-22T06:38:50.397Z,56.00
2023-02-22T06:40:55.630Z,61.47
2023-02-22T06:43:04.011Z,57.40
2023-02-22T06:45:11.842Z,52.83
2023-02-22T06:47:17.440Z,53.25
2023-02-22T06:49:23.860Z,50.97
2023-02-22T06:51:29.618Z,55.42
2023-02-22T06:53:35.631Z,50.92
2023-02-22T06:55:43.200Z,55.20
2023-02-22T06:57:48.227Z,49.13
2023-02-22T06:59:53.272Z,47.92
2023-02-22T07:01:59.381Z,54.97
2023-02-22T07:04:04.407Z,53.95
2023-02-22T07:06:11.249Z,58.08
2023-02-22T07:08:16.614Z,53.45
2023-02-22T07:10:25.688Z,49.20
2023-02-22T07:12:36.211Z,54.30
2023-02-22T07:14:42.064Z,50.05
2023-02-22T07:16:47.093Z,56.20
2023-02-22T07:18:51.944Z,49.58
2023-02-22T07:20:59.031Z,49.80
2023-02-22T07:23:04.693Z,57.85
2023-02-22T07:25:14.790Z,59.05
2023-02-22T07:27:20.335Z,56.30
2023-02-22T07:29:27.998Z,53.55
2023-02-22T07:31:38.517Z,51.67
2023-02-22T07:33:45.264Z,59.20
2023-02-22T07:35:52.106Z,47.83
2023-02-22T07:37:59.997Z,55.40
2023-02-22T07:40:04.977Z,46.72
2023-02-22T07:42:10.070Z,57.10
2023-02-22T07:44:15.370Z,56.50
2023-02-22T07:46:23.060Z,49.17
2023-02-22T07:48:31.070Z,56.13
2023-02-22T07:50:39.086Z,53.28
2023-02-22T07:52:49.790Z,55.00
2023-02-22T07:54:54.938Z,54.17
2023-02-22T07:56:59.983Z,56.13
2023-02-22T07:59:04.908Z,56.65
2023-02-22T08:01:11.072Z,63.63
2023-02-22T08:03:21.751Z,51.30
2023-02-22T08:05:29.799Z,50.17
2023-02-22T08:07:34.755Z,50.05
2023-02-22T08:09:39.764Z,53.10
2023-02-22T08:11:45.139Z,56.78
2023-02-22T08:13:50.164Z,50.28
2023-02-22T08:15:56.311Z,53.83
2023-02-22T08:18:02.761Z,56.70
2023-02-22T08:20:11.282Z,59.08
2023-02-22T08:22:16.415Z,54.85
2023-02-22T08:24:21.678Z,51.78
2023-02-22T08:26:26.684Z,49.10
2023-02-22T08:28:31.916Z,54.72
2023-02-22T08:30:40.299Z,53.42
2023-02-22T08:32:48.106Z,48.33
2023-02-22T08:34:53.290Z,46.08
2023-02-22T08:37:01.158Z,46.22
2023-02-22T08:39:06.201Z,50.00
2023-02-22T08:41:12.273Z,58.75
2023-02-22T08:43:17.436Z,52.22
2023-02-22T08:45:22.968Z,47.75
2023-02-22T08:47:29.137Z,55.05
2023-02-22T08:49:34.409Z,46.13
2023-02-22T08:51:40.883Z,45.70
2023-02-22T08:53:48.615Z,44.50
2023-02-22T08:55:53.695Z,50.03
2023-02-22T08:57:59.703Z,60.55
2023-02-22T09:00:04.948Z,50.20
2023-02-22T09:02:20.833Z,53.90
2023-02-22T09:04:26.247Z,49.10
2023-02-22T09:06:31.781Z,42.00
2023-02-22T09:08:44.274Z,40.92
2023-02-22T09:10:53.566Z,47.10
2023-02-22T09:13:01.372Z,44.72
2023-02-22T09:15:06.957Z,38.60
2023-02-22T09:17:11.893Z,44.40
2023-02-22T09:19:17.032Z,47.58
2023-02-22T09:21:22.011Z,44.17
2023-02-22T09:23:27.615Z,36.65
2023-02-22T09:25:34.478Z,41.33
2023-02-22T09:27:43.721Z,43.83
2023-02-22T09:29:51.432Z,43.08
2023-02-22T09:32:00.098Z,44.95
2023-02-22T09:34:08.934Z,42.38
2023-02-22T09:36:15.290Z,44.58
2023-02-22T09:38:23.137Z,43.35
2023-02-22T09:40:31.001Z,38.42
2023-02-22T09:42:45.878Z,41.15
2023-02-22T09:47:11.184Z,38.65
2023-02-22T09:49:26.312Z,41.35
2023-02-22T09:51:38.574Z,39.67
2023-02-22T09:53:52.652Z,36.47
2023-02-22T09:55:59.779Z,34.78
2023-02-22T09:58:16.542Z,35.88
2023-02-22T10:00:24.495Z,38.53
2023-02-22T10:02:34.843Z,39.80
2023-02-22T10:04:48.066Z,37.80
2023-02-22T10:09:18.368Z,36.42
2023-02-22T10:11:38.689Z,38.88
2023-02-22T10:13:57.568Z,42.95
2023-02-22T10:16:07.233Z,34.42
2023-02-22T10:18:47.154Z,46.13
2023-02-22T10:21:00.190Z,33.13
2023-02-22T10:23:15.292Z,42.45
2023-02-22T10:25:24.874Z,37.10
2023-02-22T10:27:42.928Z,40.55
2023-02-22T10:29:54.304Z,40.00
2023-02-22T10:32:05.580Z,38.42
2023-02-22T10:34:17.676Z,33.05
2023-02-22T10:36:24.990Z,40.60
2023-02-22T10:38:36.704Z,38.63
2023-02-22T10:40:45.263Z,33.85
2023-02-22T10:42:50.322Z,37.55
2023-02-22T10:44:58.308Z,36.30
2023-02-22T10:47:04.595Z,43.25
2023-02-22T10:49:11.211Z,39.42
2023-02-22T10:51:16.633Z,37.78
2023-02-22T10:53:22.081Z,33.70
2023-02-22T10:55:27.583Z,35.60
2023-02-22T10:57:35.115Z,36.72
2023-02-22T10:59:43.011Z,36.85
2023-02-22T11:01:52.419Z,36.95
2023-02-22T11:04:14.351Z,35.42
2023-02-22T11:06:23.811Z,31.00
2023-02-22T11:08:33.055Z,36.55
2023-02-22T11:10:40.211Z,30.52
2023-02-22T11:12:49.022Z,29.75
2023-02-22T11:14:54.320Z,32.58
2023-02-22T11:17:11.371Z,33.45
2023-02-22T11:19:24.400Z,35.20
2023-02-22T11:21:29.953Z,31.95
2023-02-22T11:23:35.759Z,33.22
2023-02-22T11:25:45.531Z,34.15
2023-02-22T11:27:51.187Z,32.83
2023-02-22T11:29:57.015Z,30.58
2023-02-22T11:32:14.841Z,32.80
2023-02-22T11:34:39.000Z,31.05
2023-02-22T11:36:47.035Z,36.28
2023-02-22T11:39:00.873Z,34.33
2023-02-22T11:41:20.503Z,30.40
2023-02-22T11:43:25.981Z,28.38
2023-02-22T11:45:31.113Z,28.70
2023-02-22T11:47:39.008Z,35.95
2023-02-22T11:49:49.296Z,30.13
2023-02-22T11:52:10.154Z,29.00
2023-02-22T11:54:41.329Z,32.47
2023-02-22T11:56:51.044Z,35.60
2023-02-22T11:59:08.298Z,35.17
2023-02-22T12:01:25.093Z,31.33
2023-02-22T12:03:53.448Z,33.28
2023-02-22T12:06:20.894Z,32.05
2023-02-22T12:08:33.095Z,31.40
2023-02-22T12:10:55.524Z,28.87
2023-02-22T12:13:17.995Z,31.52
2023-02-22T12:15:31.951Z,34.67
2023-02-22T12:17:59.461Z,32.72
2023-02-22T12:20:21.759Z,32.83
2023-02-22T12:22:30.257Z,32.08
2023-02-22T12:24:41.795Z,35.97
2023-02-22T12:26:51.598Z,31.27
2023-02-22T12:29:01.609Z,30.42
2023-02-22T12:31:24.267Z,39.88
2023-02-22T12:33:33.133Z,34.67
2023-02-22T12:35:44.348Z,30.20
2023-02-22T12:38:01.939Z,31.70
2023-02-22T12:40:13.740Z,34.50
2023-02-22T12:42:21.750Z,35.47
2023-02-22T12:44:31.950Z,35.10
2023-02-22T12:46:45.751Z,34.60
2023-02-22T12:48:58.991Z,41.10
2023-02-22T12:51:18.183Z,36.58
2023-02-22T12:53:31.396Z,36.53
2023-02-22T12:55:42.395Z,32.85
2023-02-22T12:57:54.997Z,35.55
2023-02-22T13:00:07.174Z,36.13
2023-02-22T13:02:21.657Z,35.75
2023-02-22T13:04:26.969Z,33.22
2023-02-22T13:06:45.374Z,31.95
2023-02-22T13:09:09.758Z,38.13
2023-02-22T13:11:22.002Z,36.50
2023-02-22T13:13:38.792Z,36.67
2023-02-22T13:15:50.063Z,35.30
2023-02-22T13:18:05.216Z,35.85
2023-02-22T13:20:18.651Z,39.72
2023-02-22T13:22:32.734Z,39.20
2023-02-22T13:24:46.515Z,39.83
2023-02-22T13:26:58.549Z,35.20
2023-02-22T13:29:11.426Z,32.17
2023-02-22T13:31:31.261Z,38.08
2023-02-22T13:33:54.302Z,39.17
2023-02-22T13:36:13.610Z,36.83
2023-02-22T13:38:48.541Z,40.35
2023-02-22T13:41:18.562Z,31.70
2023-02-22T13:43:52.901Z,38.47
2023-02-22T13:46:27.669Z,38.72
2023-02-22T13:49:05.687Z,37.67
2023-02-22T13:51:18.731Z,37.88
2023-02-22T13:53:33.043Z,41.60
2023-02-22T13:55:39.850Z,38.25
2023-02-22T13:57:48.752Z,33.08
2023-02-22T14:00:24.651Z,29.70
2023-02-22T14:02:39.801Z,32.88
2023-02-22T14:04:45.290Z,39.42
2023-02-22T14:06:51.360Z,36.15
2023-02-22T14:08:58.992Z,36.50
2023-02-22T14:11:06.082Z,33.25
2023-02-22T14:13:11.612Z,33.33
2023-02-22T14:15:29.149Z,36.20
2023-02-22T14:17:35.184Z,34.50
2023-02-22T14:19:40.570Z,31.40
2023-02-22T14:22:03.635Z,33.85
2023-02-22T14:24:20.153Z,37.92
2023-02-22T14:26:31.360Z,32.65
2023-02-22T14:28:41.641Z,30.60
2023-02-22T14:30:48.599Z,37.28
2023-02-22T14:32:53.780Z,34.47
2023-02-22T14:35:01.196Z,37.42
2023-02-22T14:37:14.279Z,38.10
2023-02-22T14:39:41.620Z,39.58
2023-02-22T14:41:53.924Z,35.83
2023-02-22T14:44:02.564Z,37.25
2023-02-22T14:46:13.392Z,39.72
2023-02-22T14:48:27.141Z,36.13
2023-02-22T14:50:44.636Z,32.92
2023-02-22T14:52:58.799Z,37.80
2023-02-22T14:55:19.260Z,38.53
2023-02-22T14:57:29.733Z,40.45
2023-02-22T14:59:37.211Z,39.30
2023-02-22T15:01:58.369Z,41.50
2023-02-22T15:04:25.670Z,38.20
2023-02-22T15:06:32.139Z,39.95
2023-02-22T15:08:43.141Z,36.88
2023-02-22T15:10:54.613Z,40.92
2023-02-22T15:13:12.874Z,37.42
2023-02-22T15:15:22.132Z,52.97
2023-02-22T15:17:30.992Z,76.25
2023-02-22T15:19:38.627Z,77.38
2023-02-22T15:21:50.224Z,73.63
2023-02-22T15:23:57.685Z,68.70
2023-02-22T15:26:05.634Z,66.90
2023-02-22T15:28:18.017Z,57.90
2023-02-22T15:30:27.281Z,55.50
2023-02-22T15:32:36.399Z,62.05
2023-02-22T15:34:42.816Z,60.67
2023-02-22T15:36:51.529Z,61.78
2023-02-22T15:38:59.008Z,57.92
2023-02-22T15:41:08.778Z,60.72
2023-02-22T15:43:24.540Z,69.72
2023-02-22T15:45:29.739Z,75.32
2023-02-22T15:47:34.860Z,68.95
2023-02-22T15:49:40.328Z,69.35
2023-02-22T15:51:49.318Z,70.80
2023-02-22T15:53:54.380Z,77.07
2023-02-22T15:56:01.967Z,74.78
2023-02-22T15:58:22.695Z,75.78
2023-02-22T16:00:36.176Z,84.07
2023-02-22T16:02:42.492Z,76.38
2023-02-22T16:04:59.063Z,81.45
2023-02-22T16:07:17.232Z,87.22
2023-02-22T16:09:26.283Z,91.38
2023-02-22T16:11:35.354Z,69.60
2023-02-22T16:13:45.095Z,75.38
2023-02-22T16:15:57.800Z,75.20
2023-02-22T16:18:20.425Z,70.45
2023-02-22T16:20:37.546Z,70.13
2023-02-22T16:22:49.806Z,81.50
2023-02-22T16:24:54.761Z,72.57
2023-02-22T16:27:23.937Z,74.65
2023-02-22T16:29:31.504Z,81.55
2023-02-22T16:31:38.715Z,75.93
2023-02-22T16:33:46.668Z,78.80
2023-02-22T16:35:58.431Z,75.57
2023-02-22T16:38:04.790Z,76.03
2023-02-22T16:40:14.101Z,72.90
2023-02-22T16:42:24.404Z,73.82
2023-02-22T16:44:32.432Z,86.35
2023-02-22T16:46:38.177Z,74.22
2023-02-22T16:48:46.933Z,80.38
2023-02-22T16:50:53.263Z,73.85
2023-02-22T16:52:59.246Z,74.00
2023-02-22T16:55:04.719Z,81.45
2023-02-22T16:57:12.977Z,76.13
2023-02-22T16:59:19.502Z,75.35
2023-02-22T17:01:27.441Z,72.72
2023-02-22T17:03:32.381Z,71.32
2023-02-22T17:05:38.392Z,73.63
2023-02-22T17:07:44.290Z,69.15
2023-02-22T17:09:52.028Z,66.65
2023-02-22T17:11:58.137Z,70.75
2023-02-22T17:14:02.862Z,73.80
2023-02-22T17:16:08.630Z,69.72
2023-02-22T17:18:22.690Z,68.82
2023-02-22T17:20:32.861Z,71.32
2023-02-22T17:22:41.467Z,70.95
2023-02-22T17:24:49.016Z,70.97
2023-02-22T17:26:55.114Z,64.25
2023-02-22T17:28:59.834Z,73.97
2023-02-22T17:31:04.845Z,70.65
2023-02-22T17:33:11.660Z,70.00
2023-02-22T17:35:20.366Z,67.10
2023-02-22T17:37:25.719Z,66.85
2023-02-22T17:39:30.908Z,73.80
2023-02-22T17:41:35.816Z,64.43
2023-02-22T17:43:43.876Z,77.50
2023-02-22T17:45:49.313Z,67.05
2023-02-22T17:47:55.678Z,59.00
2023-02-22T17:50:00.616Z,72.18
2023-02-22T17:52:08.713Z,63.80
2023-02-22T17:54:14.376Z,73.43
2023-02-22T17:56:21.338Z,67.97
2023-02-22T17:58:31.041Z,62.92
2023-02-22T18:00:39.981Z,67.97
2023-02-22T18:02:46.668Z,63.53
2023-02-22T18:04:51.598Z,62.67
2023-02-22T18:06:56.510Z,60.15
2023-02-22T18:09:10.904Z,70.65
2023-02-22T18:11:16.729Z,65.15
2023-02-22T18:13:22.908Z,67.20
2023-02-22T18:15:28.311Z,59.58
2023-02-22T18:17:34.073Z,66.50
2023-02-22T18:19:39.220Z,68.90
2023-02-22T18:21:45.156Z,63.08
2023-02-22T18:23:54.184Z,67.20
2023-02-22T18:26:11.219Z,59.72
2023-02-22T18:28:16.761Z,62.40
2023-02-22T18:30:22.095Z,65.57
2023-02-22T18:32:30.994Z,57.45
2023-02-22T18:34:35.993Z,65.57
2023-02-22T18:36:43.027Z,64.13
2023-02-22T18:38:47.956Z,70.13
2023-02-22T18:41:00.779Z,60.90
2023-02-22T18:43:08.688Z,63.00
2023-02-22T18:45:14.398Z,59.63
2023-02-22T18:47:19.521Z,68.50
2023-02-22T18:49:26.411Z,60.47
2023-02-22T18:51:31.259Z,67.00
2023-02-22T18:53:36.945Z,64.57
2023-02-22T18:55:41.816Z,61.92
2023-02-22T18:57:47.757Z,60.38
2023-02-22T18:59:55.630Z,70.15
2023-02-22T19:04:12.791Z,67.13
2023-02-22T19:06:19.790Z,68.88
2023-02-22T19:08:25.487Z,70.55
2023-02-22T19:10:33.450Z,68.18
2023-02-22T19:12:41.290Z,73.07
2023-02-22T19:14:49.042Z,77.60
2023-02-22T19:16:59.286Z,72.30
2023-02-22T19:19:04.265Z,68.65
2023-02-22T19:21:11.544Z,71.22
2023-02-22T19:23:16.650Z,77.43
2023-02-22T19:25:21.751Z,79.30
2023-02-22T19:27:28.195Z,71.05
2023-02-22T19:29:39.198Z,64.03
2023-02-22T19:31:46.643Z,71.00
2023-02-22T19:33:55.317Z,67.43
2023-02-22T19:36:02.905Z,73.45
2023-02-22T19:38:08.131Z,76.45
2023-02-22T19:40:17.777Z,76.88
2023-02-22T19:42:23.004Z,75.15
2023-02-22T19:44:29.603Z,78.22
2023-02-22T19:46:35.243Z,69.18
2023-02-22T19:48:42.922Z,67.40
2023-02-22T19:50:57.900Z,67.15
2023-02-22T19:53:02.939Z,77.68
2023-02-22T19:55:13.683Z,69.65
2023-02-22T19:57:18.635Z,75.68
2023-02-22T19:59:24.256Z,71.50
2023-02-22T20:01:33.125Z,64.68
2023-02-22T20:03:38.916Z,72.70
2023-02-22T20:05:47.411Z,71.13
2023-02-22T20:07:55.239Z,70.43
2023-02-22T20:10:00.305Z,71.55
2023-02-22T20:12:06.132Z,70.38
2023-02-22T20:14:18.417Z,69.93
2023-02-22T20:16:23.188Z,66.77
2023-02-22T20:18:28.180Z,72.00
2023-02-22T20:20:33.632Z,74.10
2023-02-22T20:22:41.237Z,78.82
2023-02-22T20:24:52.318Z,69.53
2023-02-22T20:26:57.657Z,76.47
2023-02-22T20:29:04.339Z,76.63
2023-02-22T20:31:15.575Z,71.80
2023-02-22T20:33:21.424Z,78.80
2023-02-22T20:35:28.010Z,82.38
2023-02-22T20:37:39.508Z,86.93
2023-02-22T20:39:48.141Z,76.85
2023-02-22T20:41:54.788Z,66.53
2023-02-22T20:44:00.844Z,71.35
2023-02-22T20:46:06.165Z,68.57
2023-02-22T20:48:12.368Z,77.70
2023-02-22T20:50:17.585Z,76.13
2023-02-22T20:52:22.707Z,71.60
2023-02-22T20:54:27.864Z,71.38
2023-02-22T20:56:35.790Z,69.25
2023-02-22T20:58:41.297Z,77.65
2023-02-22T21:00:46.377Z,69.03
2023-02-22T21:02:51.687Z,74.32
2023-02-22T21:04:56.848Z,70.95
2023-02-22T21:07:02.527Z,74.28
2023-02-22T21:09:09.937Z,79.93
2023-02-22T21:11:16.200Z,79.60
2023-02-22T21:13:23.908Z,76.70
2023-02-22T21:15:29.644Z,75.45
2023-02-22T21:17:34.656Z,74.78
2023-02-22T21:19:39.681Z,79.47
2023-02-22T21:21:45.125Z,75.72
2023-02-22T21:23:52.749Z,71.88
2023-02-22T21:25:57.871Z,74.20
2023-02-22T21:28:02.637Z,77.70
2023-02-22T21:30:13.882Z,78.88
2023-02-22T21:32:19.773Z,76.82
2023-02-22T21:34:26.001Z,72.65
2023-02-22T21:36:32.106Z,79.25
2023-02-22T21:38:40.146Z,73.40
2023-02-22T21:40:45.580Z,75.43
2023-02-22T21:42:51.201Z,75.78
2023-02-22T21:44:56.537Z,79.68
2023-02-22T21:47:04.126Z,78.75
2023-02-22T21:49:09.330Z,77.63
2023-02-22T21:51:17.031Z,81.93
2023-02-22T21:53:22.791Z,73.05
2023-02-22T21:55:27.924Z,76.10
2023-02-22T21:57:32.842Z,77.13
2023-02-22T21:59:39.881Z,78.00
2023-02-22T22:01:47.941Z,75.97
2023-02-22T22:03:55.526Z,73.13
2023-02-22T22:06:00.440Z,73.45
2023-02-22T22:08:07.660Z,72.80
2023-02-22T22:10:18.463Z,63.17
2023-02-22T22:12:26.023Z,71.45
2023-02-22T22:14:33.669Z,67.22
2023-02-22T22:16:38.500Z,64.60
2023-02-22T22:18:46.955Z,70.03
2023-02-22T22:20:56.114Z,63.75
2023-02-22T22:23:01.343Z,79.05
2023-02-22T22:25:08.654Z,65.55
2023-02-22T22:27:13.886Z,68.38
2023-02-22T22:29:19.088Z,71.88
2023-02-22T22:31:26.248Z,77.25
2023-02-22T22:33:31.699Z,77.53
2023-02-22T22:35:37.239Z,65.38
2023-02-22T22:37:51.440Z,73.88
2023-02-22T22:39:56.372Z,75.55
2023-02-22T22:42:02.061Z,78.10
2023-02-22T22:44:10.201Z,66.53
2023-02-22T22:46:16.559Z,75.00
2023-02-22T22:48:22.813Z,76.40
2023-02-22T22:50:28.867Z,63.13
2023-02-22T22:52:35.353Z,72.80
2023-02-22T22:54:43.755Z,71.78
2023-02-22T22:56:51.852Z,77.78
2023-02-22T22:58:59.158Z,77.55
2023-02-22T23:01:09.680Z,77.60
2023-02-22T23:03:21.693Z,76.40
2023-02-22T23:05:28.999Z,66.03
2023-02-22T23:07:34.645Z,69.57
2023-02-22T23:09:43.791Z,80.15
2023-02-22T23:11:51.159Z,63.92
2023-02-22T23:13:57.327Z,64.70
2023-02-22T23:16:02.236Z,61.65
2023-02-22T23:18:07.619Z,72.22
2023-02-22T23:20:16.510Z,66.63
2023-02-22T23:22:21.555Z,67.82
2023-02-22T23:24:27.537Z,65.53
2023-02-22T23:26:35.503Z,70.80
2023-02-22T23:28:42.777Z,76.53
2023-02-22T23:30:48.027Z,60.65
2023-02-22T23:32:53.217Z,72.45
2023-02-22T23:34:58.713Z,60.60
2023-02-22T23:37:03.561Z,62.13
2023-02-22T23:39:09.378Z,66.40
2023-02-22T23:41:17.522Z,70.38
2023-02-22T23:43:26.198Z,69.15
2023-02-22T23:45:34.303Z,80.00
2023-02-22T23:47:43.454Z,65.22
2023-02-22T23:49:49.717Z,62.83
2023-02-22T23:51:55.350Z,63.60
2023-02-22T23:54:00.313Z,68.18
2023-02-22T23:56:10.777Z,62.78
2023-02-22T23:58:15.897Z,65.82
